sensor_id;sensor_type;location;lat;lon;timestamp;P1;durP1;ratioP1;P2;durP2;ratioP2
80985;SDS011;70451;51.226;6.412;2023-08-08T00:01:23;3.78;;;1.75;;
80985;SDS011;70451;51.226;6.412;2023-08-08T00:03:38;2.28;;;1.98;;
80985;SDS011;70451;51.226;6.412;2023-08-08T00:05:54;3.40;;;1.98;;
80985;SDS011;70451;51.226;6.412;2023-08-08T00:08:09;3.22;;;2.42;;
80985;SDS011;70451;51.226;6.412;2023-08-08T00:10:24;4.38;;;2.30;;
80985;SDS011;70451;51.226;6.412;2023-08-08T00:12:40;3.88;;;2.40;;
80985;SDS011;70451;51.226;6.412;2023-08-08T00:14:55;5.63;;;2.20;;
80985;SDS011;70451;51.226;6.412;2023-08-08T00:17:10;5.20;;;1.95;;
80985;SDS011;70451;51.226;6.412;2023-08-08T00:19:26;2.65;;;1.88;;
80985;SDS011;70451;51.226;6.412;2023-08-08T00:21:41;3.90;;;2.22;;
80985;SDS011;70451;51.226;6.412;2023-08-08T00:23:56;4.95;;;2.05;;
80985;SDS011;70451;51.226;6.412;2023-08-08T00:26:12;3.58;;;2.40;;
80985;SDS011;70451;51.226;6.412;2023-08-08T00:28:27;3.40;;;2.20;;
80985;SDS011;70451;51.226;6.412;2023-08-08T00:30:43;5.20;;;2.25;;
80985;SDS011;70451;51.226;6.412;2023-08-08T00:32:58;3.30;;;2.30;;
80985;SDS011;70451;51.226;6.412;2023-08-08T00:35:14;5.07;;;2.55;;
80985;SDS011;70451;51.226;6.412;2023-08-08T00:37:29;3.47;;;2.10;;
80985;SDS011;70451;51.226;6.412;2023-08-08T00:39:44;2.85;;;2.17;;
80985;SDS011;70451;51.226;6.412;2023-08-08T00:42:01;5.15;;;2.50;;
80985;SDS011;70451;51.226;6.412;2023-08-08T00:44:16;2.88;;;2.13;;
80985;SDS011;70451;51.226;6.412;2023-08-08T00:46:31;3.92;;;2.17;;
80985;SDS011;70451;51.226;6.412;2023-08-08T00:48:47;4.90;;;2.80;;
80985;SDS011;70451;51.226;6.412;2023-08-08T00:51:02;4.20;;;2.30;;
80985;SDS011;70451;51.226;6.412;2023-08-08T00:53:18;5.65;;;2.47;;
80985;SDS011;70451;51.226;6.412;2023-08-08T00:55:34;3.13;;;2.42;;
80985;SDS011;70451;51.226;6.412;2023-08-08T00:57:50;4.22;;;2.30;;
80985;SDS011;70451;51.226;6.412;2023-08-08T01:00:06;3.83;;;2.50;;
80985;SDS011;70451;51.226;6.412;2023-08-08T01:02:24;3.20;;;2.42;;
80985;SDS011;70451;51.226;6.412;2023-08-08T01:04:39;4.70;;;2.35;;
80985;SDS011;70451;51.226;6.412;2023-08-08T01:07:06;5.05;;;2.40;;
80985;SDS011;70451;51.226;6.412;2023-08-08T01:09:39;3.25;;;1.88;;
80985;SDS011;70451;51.226;6.412;2023-08-08T01:11:56;5.70;;;2.55;;
80985;SDS011;70451;51.226;6.412;2023-08-08T01:14:12;4.68;;;2.45;;
80985;SDS011;70451;51.226;6.412;2023-08-08T01:16:28;6.78;;;2.55;;
80985;SDS011;70451;51.226;6.412;2023-08-08T01:18:45;5.43;;;2.58;;
80985;SDS011;70451;51.226;6.412;2023-08-08T01:21:02;4.72;;;2.42;;
80985;SDS011;70451;51.226;6.412;2023-08-08T01:23:19;4.07;;;2.35;;
80985;SDS011;70451;51.226;6.412;2023-08-08T01:25:41;6.07;;;2.55;;
80985;SDS011;70451;51.226;6.412;2023-08-08T01:27:57;3.15;;;2.22;;
80985;SDS011;70451;51.226;6.412;2023-08-08T01:30:12;3.53;;;2.45;;
80985;SDS011;70451;51.226;6.412;2023-08-08T01:32:27;3.08;;;2.10;;
80985;SDS011;70451;51.226;6.412;2023-08-08T01:34:43;4.00;;;2.33;;
80985;SDS011;70451;51.226;6.412;2023-08-08T01:39:32;3.65;;;2.13;;
80985;SDS011;70451;51.226;6.412;2023-08-08T01:41:49;3.53;;;2.20;;
80985;SDS011;70451;51.226;6.412;2023-08-08T01:44:05;4.57;;;2.20;;
80985;SDS011;70451;51.226;6.412;2023-08-08T01:46:21;3.90;;;2.42;;
80985;SDS011;70451;51.226;6.412;2023-08-08T01:48:39;4.25;;;2.00;;
80985;SDS011;70451;51.226;6.412;2023-08-08T01:50:54;5.53;;;2.70;;
80985;SDS011;70451;51.226;6.412;2023-08-08T01:53:09;3.42;;;2.67;;
80985;SDS011;70451;51.226;6.412;2023-08-08T01:55:25;5.40;;;3.03;;
80985;SDS011;70451;51.226;6.412;2023-08-08T01:57:40;4.38;;;2.20;;
80985;SDS011;70451;51.226;6.412;2023-08-08T01:59:55;3.35;;;2.25;;
80985;SDS011;70451;51.226;6.412;2023-08-08T02:02:11;4.57;;;2.90;;
80985;SDS011;70451;51.226;6.412;2023-08-08T02:04:26;3.72;;;2.67;;
80985;SDS011;70451;51.226;6.412;2023-08-08T02:06:42;5.20;;;2.10;;
80985;SDS011;70451;51.226;6.412;2023-08-08T02:08:57;3.67;;;2.75;;
80985;SDS011;70451;51.226;6.412;2023-08-08T02:11:13;3.30;;;2.63;;
80985;SDS011;70451;51.226;6.412;2023-08-08T02:13:28;4.30;;;2.22;;
80985;SDS011;70451;51.226;6.412;2023-08-08T02:15:44;5.20;;;2.67;;
80985;SDS011;70451;51.226;6.412;2023-08-08T02:18:00;4.18;;;2.50;;
80985;SDS011;70451;51.226;6.412;2023-08-08T02:20:16;4.45;;;2.80;;
80985;SDS011;70451;51.226;6.412;2023-08-08T02:22:31;5.80;;;2.35;;
80985;SDS011;70451;51.226;6.412;2023-08-08T02:24:46;3.17;;;2.63;;
80985;SDS011;70451;51.226;6.412;2023-08-08T02:27:02;5.20;;;2.47;;
80985;SDS011;70451;51.226;6.412;2023-08-08T02:29:17;4.85;;;2.30;;
80985;SDS011;70451;51.226;6.412;2023-08-08T02:31:32;5.03;;;2.28;;
80985;SDS011;70451;51.226;6.412;2023-08-08T02:33:48;2.90;;;2.13;;
80985;SDS011;70451;51.226;6.412;2023-08-08T02:36:05;6.78;;;2.03;;
80985;SDS011;70451;51.226;6.412;2023-08-08T02:38:20;4.38;;;2.38;;
80985;SDS011;70451;51.226;6.412;2023-08-08T02:40:35;5.28;;;2.05;;
80985;SDS011;70451;51.226;6.412;2023-08-08T02:42:51;3.03;;;2.25;;
80985;SDS011;70451;51.226;6.412;2023-08-08T02:45:06;5.70;;;2.38;;
80985;SDS011;70451;51.226;6.412;2023-08-08T02:47:22;4.03;;;2.30;;
80985;SDS011;70451;51.226;6.412;2023-08-08T02:49:38;3.13;;;2.30;;
80985;SDS011;70451;51.226;6.412;2023-08-08T02:51:53;5.97;;;2.25;;
80985;SDS011;70451;51.226;6.412;2023-08-08T02:54:09;4.53;;;2.03;;
80985;SDS011;70451;51.226;6.412;2023-08-08T02:56:24;4.03;;;2.22;;
80985;SDS011;70451;51.226;6.412;2023-08-08T02:58:39;4.85;;;2.00;;
80985;SDS011;70451;51.226;6.412;2023-08-08T03:00:55;5.57;;;2.50;;
80985;SDS011;70451;51.226;6.412;2023-08-08T03:03:10;5.15;;;2.67;;
80985;SDS011;70451;51.226;6.412;2023-08-08T03:05:25;3.60;;;2.42;;
80985;SDS011;70451;51.226;6.412;2023-08-08T03:07:41;3.70;;;2.05;;
80985;SDS011;70451;51.226;6.412;2023-08-08T03:09:56;3.10;;;1.98;;
80985;SDS011;70451;51.226;6.412;2023-08-08T03:12:11;6.13;;;2.38;;
80985;SDS011;70451;51.226;6.412;2023-08-08T03:14:27;3.42;;;2.10;;
80985;SDS011;70451;51.226;6.412;2023-08-08T03:16:42;9.82;;;2.20;;
80985;SDS011;70451;51.226;6.412;2023-08-08T03:18:57;3.92;;;2.35;;
80985;SDS011;70451;51.226;6.412;2023-08-08T03:21:13;3.88;;;2.00;;
80985;SDS011;70451;51.226;6.412;2023-08-08T03:23:28;4.60;;;2.30;;
80985;SDS011;70451;51.226;6.412;2023-08-08T03:25:44;6.60;;;2.13;;
80985;SDS011;70451;51.226;6.412;2023-08-08T03:27:59;5.45;;;2.10;;
80985;SDS011;70451;51.226;6.412;2023-08-08T03:30:14;5.93;;;2.42;;
80985;SDS011;70451;51.226;6.412;2023-08-08T03:32:30;4.32;;;2.42;;
80985;SDS011;70451;51.226;6.412;2023-08-08T03:34:46;2.90;;;2.13;;
80985;SDS011;70451;51.226;6.412;2023-08-08T03:37:01;6.32;;;1.95;;
80985;SDS011;70451;51.226;6.412;2023-08-08T03:39:16;4.03;;;2.22;;
80985;SDS011;70451;51.226;6.412;2023-08-08T03:41:32;2.45;;;1.95;;
80985;SDS011;70451;51.226;6.412;2023-08-08T03:43:47;4.72;;;2.08;;
80985;SDS011;70451;51.226;6.412;2023-08-08T03:46:02;4.85;;;2.17;;
80985;SDS011;70451;51.226;6.412;2023-08-08T03:48:18;5.20;;;2.42;;
80985;SDS011;70451;51.226;6.412;2023-08-08T03:50:33;3.70;;;2.08;;
80985;SDS011;70451;51.226;6.412;2023-08-08T03:52:48;5.82;;;2.63;;
80985;SDS011;70451;51.226;6.412;2023-08-08T03:55:04;5.47;;;2.33;;
80985;SDS011;70451;51.226;6.412;2023-08-08T03:57:19;6.55;;;3.05;;
80985;SDS011;70451;51.226;6.412;2023-08-08T03:59:35;3.92;;;2.33;;
80985;SDS011;70451;51.226;6.412;2023-08-08T04:01:50;4.85;;;2.10;;
80985;SDS011;70451;51.226;6.412;2023-08-08T04:04:05;7.38;;;2.58;;
80985;SDS011;70451;51.226;6.412;2023-08-08T04:06:21;4.93;;;2.42;;
80985;SDS011;70451;51.226;6.412;2023-08-08T04:08:36;6.40;;;2.60;;
80985;SDS011;70451;51.226;6.412;2023-08-08T04:10:51;5.78;;;2.47;;
80985;SDS011;70451;51.226;6.412;2023-08-08T04:13:06;5.93;;;2.42;;
80985;SDS011;70451;51.226;6.412;2023-08-08T04:15:22;5.45;;;2.60;;
80985;SDS011;70451;51.226;6.412;2023-08-08T04:17:37;6.47;;;2.90;;
80985;SDS011;70451;51.226;6.412;2023-08-08T04:19:52;5.88;;;2.38;;
80985;SDS011;70451;51.226;6.412;2023-08-08T04:22:08;6.50;;;2.80;;
80985;SDS011;70451;51.226;6.412;2023-08-08T04:24:23;5.10;;;2.70;;
80985;SDS011;70451;51.226;6.412;2023-08-08T04:26:40;4.55;;;2.50;;
80985;SDS011;70451;51.226;6.412;2023-08-08T04:28:55;5.82;;;2.95;;
80985;SDS011;70451;51.226;6.412;2023-08-08T04:31:10;4.93;;;2.83;;
80985;SDS011;70451;51.226;6.412;2023-08-08T04:33:26;4.47;;;2.55;;
80985;SDS011;70451;51.226;6.412;2023-08-08T04:35:41;6.32;;;2.58;;
80985;SDS011;70451;51.226;6.412;2023-08-08T04:37:56;7.82;;;3.20;;
80985;SDS011;70451;51.226;6.412;2023-08-08T04:40:12;7.28;;;2.78;;
80985;SDS011;70451;51.226;6.412;2023-08-08T04:42:27;4.85;;;2.95;;
80985;SDS011;70451;51.226;6.412;2023-08-08T04:44:42;5.30;;;3.17;;
80985;SDS011;70451;51.226;6.412;2023-08-08T04:46:58;7.25;;;2.95;;
80985;SDS011;70451;51.226;6.412;2023-08-08T04:49:13;5.35;;;2.65;;
80985;SDS011;70451;51.226;6.412;2023-08-08T04:51:28;6.63;;;3.50;;
80985;SDS011;70451;51.226;6.412;2023-08-08T04:53:43;7.87;;;3.10;;
80985;SDS011;70451;51.226;6.412;2023-08-08T04:55:59;7.25;;;3.13;;
80985;SDS011;70451;51.226;6.412;2023-08-08T04:58:14;10.48;;;3.80;;
80985;SDS011;70451;51.226;6.412;2023-08-08T05:00:29;4.80;;;3.05;;
80985;SDS011;70451;51.226;6.412;2023-08-08T05:02:45;7.28;;;3.65;;
80985;SDS011;70451;51.226;6.412;2023-08-08T05:05:00;6.07;;;3.15;;
80985;SDS011;70451;51.226;6.412;2023-08-08T05:07:15;7.43;;;3.20;;
80985;SDS011;70451;51.226;6.412;2023-08-08T05:09:31;6.63;;;3.40;;
80985;SDS011;70451;51.226;6.412;2023-08-08T05:11:46;6.95;;;3.80;;
80985;SDS011;70451;51.226;6.412;2023-08-08T05:14:02;5.45;;;3.15;;
80985;SDS011;70451;51.226;6.412;2023-08-08T05:16:17;4.55;;;2.53;;
80985;SDS011;70451;51.226;6.412;2023-08-08T05:18:33;6.25;;;2.90;;
80985;SDS011;70451;51.226;6.412;2023-08-08T05:20:48;5.47;;;3.00;;
80985;SDS011;70451;51.226;6.412;2023-08-08T05:23:04;4.60;;;3.33;;
80985;SDS011;70451;51.226;6.412;2023-08-08T05:25:19;6.72;;;3.80;;
80985;SDS011;70451;51.226;6.412;2023-08-08T05:27:34;6.18;;;3.13;;
80985;SDS011;70451;51.226;6.412;2023-08-08T05:29:50;8.18;;;3.35;;
80985;SDS011;70451;51.226;6.412;2023-08-08T05:32:05;7.07;;;3.45;;
80985;SDS011;70451;51.226;6.412;2023-08-08T05:34:23;7.22;;;3.97;;
80985;SDS011;70451;51.226;6.412;2023-08-08T05:36:39;7.35;;;3.70;;
80985;SDS011;70451;51.226;6.412;2023-08-08T05:38:54;7.13;;;3.15;;
80985;SDS011;70451;51.226;6.412;2023-08-08T05:41:10;11.35;;;4.18;;
80985;SDS011;70451;51.226;6.412;2023-08-08T05:43:25;9.30;;;3.33;;
80985;SDS011;70451;51.226;6.412;2023-08-08T05:45:42;6.93;;;3.40;;
80985;SDS011;70451;51.226;6.412;2023-08-08T05:47:57;8.52;;;2.97;;
80985;SDS011;70451;51.226;6.412;2023-08-08T05:50:15;9.27;;;3.97;;
80985;SDS011;70451;51.226;6.412;2023-08-08T05:52:30;6.78;;;3.10;;
80985;SDS011;70451;51.226;6.412;2023-08-08T05:54:46;6.70;;;2.63;;
80985;SDS011;70451;51.226;6.412;2023-08-08T05:57:02;7.97;;;3.15;;
80985;SDS011;70451;51.226;6.412;2023-08-08T05:59:17;5.47;;;3.10;;
80985;SDS011;70451;51.226;6.412;2023-08-08T06:01:33;7.90;;;3.38;;
80985;SDS011;70451;51.226;6.412;2023-08-08T06:03:49;7.20;;;3.53;;
80985;SDS011;70451;51.226;6.412;2023-08-08T06:06:05;5.72;;;2.85;;
80985;SDS011;70451;51.226;6.412;2023-08-08T06:08:21;4.60;;;2.97;;
80985;SDS011;70451;51.226;6.412;2023-08-08T06:10:36;6.38;;;2.97;;
80985;SDS011;70451;51.226;6.412;2023-08-08T06:12:52;5.72;;;3.00;;
80985;SDS011;70451;51.226;6.412;2023-08-08T06:15:07;10.00;;;3.10;;
80985;SDS011;70451;51.226;6.412;2023-08-08T06:17:23;4.82;;;3.10;;
80985;SDS011;70451;51.226;6.412;2023-08-08T06:19:38;6.13;;;3.40;;
80985;SDS011;70451;51.226;6.412;2023-08-08T06:21:54;9.07;;;3.50;;
80985;SDS011;70451;51.226;6.412;2023-08-08T06:24:09;5.10;;;2.80;;
80985;SDS011;70451;51.226;6.412;2023-08-08T06:26:25;6.00;;;3.60;;
80985;SDS011;70451;51.226;6.412;2023-08-08T06:28:40;5.32;;;3.15;;
80985;SDS011;70451;51.226;6.412;2023-08-08T06:30:56;6.35;;;3.03;;
80985;SDS011;70451;51.226;6.412;2023-08-08T06:33:13;8.85;;;3.15;;
80985;SDS011;70451;51.226;6.412;2023-08-08T06:35:28;7.10;;;3.58;;
80985;SDS011;70451;51.226;6.412;2023-08-08T06:37:43;5.47;;;3.20;;
80985;SDS011;70451;51.226;6.412;2023-08-08T06:39:59;7.65;;;3.75;;
80985;SDS011;70451;51.226;6.412;2023-08-08T06:42:14;6.03;;;3.08;;
80985;SDS011;70451;51.226;6.412;2023-08-08T06:44:31;7.05;;;3.00;;
80985;SDS011;70451;51.226;6.412;2023-08-08T06:46:47;9.43;;;3.50;;
80985;SDS011;70451;51.226;6.412;2023-08-08T06:49:03;8.35;;;3.63;;
80985;SDS011;70451;51.226;6.412;2023-08-08T06:51:19;7.88;;;3.20;;
80985;SDS011;70451;51.226;6.412;2023-08-08T06:53:34;5.22;;;3.25;;
80985;SDS011;70451;51.226;6.412;2023-08-08T06:55:50;5.75;;;3.40;;
80985;SDS011;70451;51.226;6.412;2023-08-08T06:58:06;5.90;;;3.60;;
80985;SDS011;70451;51.226;6.412;2023-08-08T07:00:21;5.45;;;3.50;;
80985;SDS011;70451;51.226;6.412;2023-08-08T07:02:37;5.75;;;3.58;;
80985;SDS011;70451;51.226;6.412;2023-08-08T07:04:52;8.48;;;3.55;;
80985;SDS011;70451;51.226;6.412;2023-08-08T07:07:07;6.43;;;3.05;;
80985;SDS011;70451;51.226;6.412;2023-08-08T07:09:23;7.90;;;3.65;;
80985;SDS011;70451;51.226;6.412;2023-08-08T07:11:38;5.68;;;3.78;;
80985;SDS011;70451;51.226;6.412;2023-08-08T07:13:54;7.30;;;3.33;;
80985;SDS011;70451;51.226;6.412;2023-08-08T07:16:09;5.53;;;2.97;;
80985;SDS011;70451;51.226;6.412;2023-08-08T07:18:24;6.03;;;3.27;;
80985;SDS011;70451;51.226;6.412;2023-08-08T07:20:39;9.82;;;3.22;;
80985;SDS011;70451;51.226;6.412;2023-08-08T07:22:55;6.68;;;3.38;;
80985;SDS011;70451;51.226;6.412;2023-08-08T07:25:10;5.88;;;3.28;;
80985;SDS011;70451;51.226;6.412;2023-08-08T07:27:26;4.18;;;2.55;;
80985;SDS011;70451;51.226;6.412;2023-08-08T07:29:42;6.93;;;3.30;;
80985;SDS011;70451;51.226;6.412;2023-08-08T07:31:57;7.28;;;2.63;;
80985;SDS011;70451;51.226;6.412;2023-08-08T07:34:13;7.05;;;2.88;;
80985;SDS011;70451;51.226;6.412;2023-08-08T07:36:28;4.50;;;2.97;;
80985;SDS011;70451;51.226;6.412;2023-08-08T07:38:44;6.05;;;2.60;;
80985;SDS011;70451;51.226;6.412;2023-08-08T07:40:59;5.85;;;2.80;;
80985;SDS011;70451;51.226;6.412;2023-08-08T07:43:14;4.90;;;2.97;;
80985;SDS011;70451;51.226;6.412;2023-08-08T07:45:29;6.20;;;3.08;;
80985;SDS011;70451;51.226;6.412;2023-08-08T07:47:45;7.35;;;3.03;;
80985;SDS011;70451;51.226;6.412;2023-08-08T07:50:00;4.90;;;2.70;;
80985;SDS011;70451;51.226;6.412;2023-08-08T07:52:15;5.00;;;2.83;;
80985;SDS011;70451;51.226;6.412;2023-08-08T07:54:31;7.68;;;3.13;;
80985;SDS011;70451;51.226;6.412;2023-08-08T07:56:46;6.07;;;2.80;;
80985;SDS011;70451;51.226;6.412;2023-08-08T07:59:02;6.35;;;3.40;;
80985;SDS011;70451;51.226;6.412;2023-08-08T08:01:18;8.93;;;3.47;;
80985;SDS011;70451;51.226;6.412;2023-08-08T08:03:33;6.90;;;3.20;;
80985;SDS011;70451;51.226;6.412;2023-08-08T08:05:49;4.30;;;2.85;;
80985;SDS011;70451;51.226;6.412;2023-08-08T08:08:04;6.93;;;3.00;;
80985;SDS011;70451;51.226;6.412;2023-08-08T08:10:20;8.10;;;3.05;;
80985;SDS011;70451;51.226;6.412;2023-08-08T08:12:35;6.53;;;3.22;;
80985;SDS011;70451;51.226;6.412;2023-08-08T08:14:51;4.95;;;3.13;;
80985;SDS011;70451;51.226;6.412;2023-08-08T08:17:06;4.82;;;3.13;;
80985;SDS011;70451;51.226;6.412;2023-08-08T08:19:22;8.68;;;3.30;;
80985;SDS011;70451;51.226;6.412;2023-08-08T08:21:37;8.50;;;3.70;;
80985;SDS011;70451;51.226;6.412;2023-08-08T08:23:52;5.32;;;3.00;;
80985;SDS011;70451;51.226;6.412;2023-08-08T08:26:08;7.68;;;3.30;;
80985;SDS011;70451;51.226;6.412;2023-08-08T08:28:23;7.40;;;3.15;;
80985;SDS011;70451;51.226;6.412;2023-08-08T08:30:38;8.95;;;3.22;;
80985;SDS011;70451;51.226;6.412;2023-08-08T08:32:54;8.48;;;3.92;;
80985;SDS011;70451;51.226;6.412;2023-08-08T08:35:09;7.30;;;3.00;;
80985;SDS011;70451;51.226;6.412;2023-08-08T08:37:24;13.32;;;2.63;;
80985;SDS011;70451;51.226;6.412;2023-08-08T08:39:40;6.65;;;3.05;;
80985;SDS011;70451;51.226;6.412;2023-08-08T08:41:58;6.03;;;2.97;;
80985;SDS011;70451;51.226;6.412;2023-08-08T08:44:16;8.00;;;3.30;;
80985;SDS011;70451;51.226;6.412;2023-08-08T08:46:32;5.68;;;2.90;;
80985;SDS011;70451;51.226;6.412;2023-08-08T08:48:50;5.90;;;3.58;;
80985;SDS011;70451;51.226;6.412;2023-08-08T08:51:06;5.50;;;3.10;;
80985;SDS011;70451;51.226;6.412;2023-08-08T08:53:22;6.28;;;3.05;;
80985;SDS011;70451;51.226;6.412;2023-08-08T08:55:37;5.47;;;2.75;;
80985;SDS011;70451;51.226;6.412;2023-08-08T08:57:54;5.47;;;3.67;;
80985;SDS011;70451;51.226;6.412;2023-08-08T09:00:10;7.47;;;3.38;;
80985;SDS011;70451;51.226;6.412;2023-08-08T09:02:26;4.43;;;3.15;;
80985;SDS011;70451;51.226;6.412;2023-08-08T09:04:41;7.38;;;3.45;;
80985;SDS011;70451;51.226;6.412;2023-08-08T09:06:57;7.90;;;3.42;;
80985;SDS011;70451;51.226;6.412;2023-08-08T09:09:12;7.13;;;3.20;;
80985;SDS011;70451;51.226;6.412;2023-08-08T09:11:31;6.47;;;3.03;;
80985;SDS011;70451;51.226;6.412;2023-08-08T09:13:46;4.28;;;3.00;;
80985;SDS011;70451;51.226;6.412;2023-08-08T09:16:02;7.15;;;3.03;;
80985;SDS011;70451;51.226;6.412;2023-08-08T09:18:17;3.95;;;3.22;;
80985;SDS011;70451;51.226;6.412;2023-08-08T09:20:32;6.03;;;3.20;;
80985;SDS011;70451;51.226;6.412;2023-08-08T09:22:48;5.30;;;3.40;;
80985;SDS011;70451;51.226;6.412;2023-08-08T09:25:04;6.43;;;3.60;;
80985;SDS011;70451;51.226;6.412;2023-08-08T09:27:20;6.75;;;3.38;;
80985;SDS011;70451;51.226;6.412;2023-08-08T09:29:36;4.30;;;2.60;;
80985;SDS011;70451;51.226;6.412;2023-08-08T09:31:52;4.40;;;2.80;;
80985;SDS011;70451;51.226;6.412;2023-08-08T09:34:07;7.38;;;3.08;;
80985;SDS011;70451;51.226;6.412;2023-08-08T09:36:22;5.07;;;2.78;;
80985;SDS011;70451;51.226;6.412;2023-08-08T09:38:38;5.10;;;2.67;;
80985;SDS011;70451;51.226;6.412;2023-08-08T09:40:54;5.20;;;2.45;;
80985;SDS011;70451;51.226;6.412;2023-08-08T09:43:11;6.07;;;3.10;;
80985;SDS011;70451;51.226;6.412;2023-08-08T09:45:26;4.55;;;2.40;;
80985;SDS011;70451;51.226;6.412;2023-08-08T09:47:41;4.05;;;2.42;;
80985;SDS011;70451;51.226;6.412;2023-08-08T09:49:58;2.55;;;2.33;;
80985;SDS011;70451;51.226;6.412;2023-08-08T09:54:31;5.55;;;2.30;;
80985;SDS011;70451;51.226;6.412;2023-08-08T09:56:48;3.60;;;2.30;;
80985;SDS011;70451;51.226;6.412;2023-08-08T09:59:05;4.50;;;2.22;;
80985;SDS011;70451;51.226;6.412;2023-08-08T10:01:21;5.00;;;2.10;;
80985;SDS011;70451;51.226;6.412;2023-08-08T10:03:37;3.22;;;2.47;;
80985;SDS011;70451;51.226;6.412;2023-08-08T10:05:52;5.38;;;2.67;;
80985;SDS011;70451;51.226;6.412;2023-08-08T10:08:08;3.25;;;2.33;;
80985;SDS011;70451;51.226;6.412;2023-08-08T10:10:23;3.88;;;2.58;;
80985;SDS011;70451;51.226;6.412;2023-08-08T10:12:39;3.13;;;2.70;;
80985;SDS011;70451;51.226;6.412;2023-08-08T10:14:55;6.05;;;2.70;;
80985;SDS011;70451;51.226;6.412;2023-08-08T10:17:14;4.75;;;2.95;;
80985;SDS011;70451;51.226;6.412;2023-08-08T10:19:30;5.05;;;2.72;;
80985;SDS011;70451;51.226;6.412;2023-08-08T10:21:45;5.75;;;2.63;;
80985;SDS011;70451;51.226;6.412;2023-08-08T10:24:02;6.38;;;3.08;;
80985;SDS011;70451;51.226;6.412;2023-08-08T10:26:18;4.75;;;2.88;;
80985;SDS011;70451;51.226;6.412;2023-08-08T10:28:34;4.60;;;3.15;;
80985;SDS011;70451;51.226;6.412;2023-08-08T10:33:15;5.68;;;3.05;;
80985;SDS011;70451;51.226;6.412;2023-08-08T10:35:36;5.18;;;3.38;;
80985;SDS011;70451;51.226;6.412;2023-08-08T10:37:53;6.45;;;4.18;;
80985;SDS011;70451;51.226;6.412;2023-08-08T10:40:09;6.43;;;3.50;;
80985;SDS011;70451;51.226;6.412;2023-08-08T10:42:26;7.05;;;3.50;;
80985;SDS011;70451;51.226;6.412;2023-08-08T10:44:43;8.55;;;3.75;;
80985;SDS011;70451;51.226;6.412;2023-08-08T10:46:59;6.05;;;3.60;;
80985;SDS011;70451;51.226;6.412;2023-08-08T10:49:16;6.28;;;3.65;;
80985;SDS011;70451;51.226;6.412;2023-08-08T10:51:36;7.72;;;3.80;;
80985;SDS011;70451;51.226;6.412;2023-08-08T10:53:57;7.22;;;3.70;;
80985;SDS011;70451;51.226;6.412;2023-08-08T10:56:13;7.63;;;3.22;;
80985;SDS011;70451;51.226;6.412;2023-08-08T10:58:38;5.53;;;3.17;;
80985;SDS011;70451;51.226;6.412;2023-08-08T11:00:55;5.57;;;3.22;;
80985;SDS011;70451;51.226;6.412;2023-08-08T11:03:12;6.07;;;3.35;;
80985;SDS011;70451;51.226;6.412;2023-08-08T11:05:28;4.00;;;2.92;;
80985;SDS011;70451;51.226;6.412;2023-08-08T11:07:45;5.35;;;2.90;;
80985;SDS011;70451;51.226;6.412;2023-08-08T11:10:01;6.40;;;2.83;;
80985;SDS011;70451;51.226;6.412;2023-08-08T11:12:16;4.82;;;2.88;;
80985;SDS011;70451;51.226;6.412;2023-08-08T11:14:31;4.43;;;2.95;;
80985;SDS011;70451;51.226;6.412;2023-08-08T11:16:48;5.00;;;3.10;;
80985;SDS011;70451;51.226;6.412;2023-08-08T11:19:04;4.55;;;3.10;;
80985;SDS011;70451;51.226;6.412;2023-08-08T11:21:20;4.13;;;2.97;;
80985;SDS011;70451;51.226;6.412;2023-08-08T11:23:38;5.60;;;2.85;;
80985;SDS011;70451;51.226;6.412;2023-08-08T11:25:53;5.25;;;2.88;;
80985;SDS011;70451;51.226;6.412;2023-08-08T11:28:10;3.88;;;2.97;;
80985;SDS011;70451;51.226;6.412;2023-08-08T11:30:30;5.20;;;3.45;;
80985;SDS011;70451;51.226;6.412;2023-08-08T11:32:49;5.18;;;2.88;;
80985;SDS011;70451;51.226;6.412;2023-08-08T11:35:05;4.63;;;3.22;;
80985;SDS011;70451;51.226;6.412;2023-08-08T11:37:21;4.70;;;3.00;;
80985;SDS011;70451;51.226;6.412;2023-08-08T11:39:37;6.47;;;3.53;;
80985;SDS011;70451;51.226;6.412;2023-08-08T11:41:52;5.53;;;3.13;;
80985;SDS011;70451;51.226;6.412;2023-08-08T11:44:08;6.50;;;3.00;;
80985;SDS011;70451;51.226;6.412;2023-08-08T11:46:24;5.38;;;2.95;;
80985;SDS011;70451;51.226;6.412;2023-08-08T11:48:40;5.22;;;2.90;;
80985;SDS011;70451;51.226;6.412;2023-08-08T11:50:56;6.88;;;2.63;;
80985;SDS011;70451;51.226;6.412;2023-08-08T11:53:11;4.80;;;2.65;;
80985;SDS011;70451;51.226;6.412;2023-08-08T11:55:27;5.20;;;3.55;;
80985;SDS011;70451;51.226;6.412;2023-08-08T11:57:43;4.60;;;3.10;;
80985;SDS011;70451;51.226;6.412;2023-08-08T11:59:59;5.20;;;2.75;;
80985;SDS011;70451;51.226;6.412;2023-08-08T12:02:14;4.53;;;2.75;;
80985;SDS011;70451;51.226;6.412;2023-08-08T12:04:30;4.03;;;3.13;;
80985;SDS011;70451;51.226;6.412;2023-08-08T12:06:45;5.10;;;2.72;;
80985;SDS011;70451;51.226;6.412;2023-08-08T12:09:00;4.88;;;2.95;;
80985;SDS011;70451;51.226;6.412;2023-08-08T12:11:16;4.45;;;2.88;;
80985;SDS011;70451;51.226;6.412;2023-08-08T12:13:32;3.53;;;2.72;;
80985;SDS011;70451;51.226;6.412;2023-08-08T12:15:50;6.13;;;2.75;;
80985;SDS011;70451;51.226;6.412;2023-08-08T12:20:32;2.92;;;2.55;;
80985;SDS011;70451;51.226;6.412;2023-08-08T12:22:48;6.38;;;3.38;;
80985;SDS011;70451;51.226;6.412;2023-08-08T12:25:03;5.50;;;2.90;;
80985;SDS011;70451;51.226;6.412;2023-08-08T12:27:19;4.65;;;2.80;;
80985;SDS011;70451;51.226;6.412;2023-08-08T12:29:34;5.57;;;3.05;;
80985;SDS011;70451;51.226;6.412;2023-08-08T12:31:49;4.82;;;2.60;;
80985;SDS011;70451;51.226;6.412;2023-08-08T12:34:05;4.55;;;2.63;;
80985;SDS011;70451;51.226;6.412;2023-08-08T12:36:20;5.70;;;3.03;;
80985;SDS011;70451;51.226;6.412;2023-08-08T12:38:36;4.43;;;2.58;;
80985;SDS011;70451;51.226;6.412;2023-08-08T12:40:51;5.32;;;2.72;;
80985;SDS011;70451;51.226;6.412;2023-08-08T12:43:07;4.68;;;2.53;;
80985;SDS011;70451;51.226;6.412;2023-08-08T12:45:22;3.97;;;2.28;;
80985;SDS011;70451;51.226;6.412;2023-08-08T12:47:37;5.53;;;2.58;;
80985;SDS011;70451;51.226;6.412;2023-08-08T12:49:53;5.68;;;2.40;;
80985;SDS011;70451;51.226;6.412;2023-08-08T12:52:08;5.05;;;2.58;;
80985;SDS011;70451;51.226;6.412;2023-08-08T12:54:24;2.72;;;2.42;;
80985;SDS011;70451;51.226;6.412;2023-08-08T12:56:39;4.90;;;2.40;;
80985;SDS011;70451;51.226;6.412;2023-08-08T12:58:54;3.83;;;2.50;;
80985;SDS011;70451;51.226;6.412;2023-08-08T13:01:10;6.40;;;2.78;;
80985;SDS011;70451;51.226;6.412;2023-08-08T13:03:25;4.03;;;2.60;;
80985;SDS011;70451;51.226;6.412;2023-08-08T13:05:40;4.35;;;3.30;;
80985;SDS011;70451;51.226;6.412;2023-08-08T13:07:56;5.88;;;3.05;;
80985;SDS011;70451;51.226;6.412;2023-08-08T13:10:11;6.13;;;2.90;;
80985;SDS011;70451;51.226;6.412;2023-08-08T13:12:27;3.22;;;2.42;;
80985;SDS011;70451;51.226;6.412;2023-08-08T13:14:42;3.65;;;2.53;;
80985;SDS011;70451;51.226;6.412;2023-08-08T13:16:57;6.68;;;3.67;;
80985;SDS011;70451;51.226;6.412;2023-08-08T13:19:12;5.40;;;2.90;;
80985;SDS011;70451;51.226;6.412;2023-08-08T13:21:30;5.35;;;3.10;;
80985;SDS011;70451;51.226;6.412;2023-08-08T13:23:46;5.63;;;3.20;;
80985;SDS011;70451;51.226;6.412;2023-08-08T13:26:01;5.70;;;3.20;;
80985;SDS011;70451;51.226;6.412;2023-08-08T13:28:18;6.82;;;3.38;;
80985;SDS011;70451;51.226;6.412;2023-08-08T13:30:33;5.80;;;3.30;;
80985;SDS011;70451;51.226;6.412;2023-08-08T13:32:50;5.43;;;2.92;;
80985;SDS011;70451;51.226;6.412;2023-08-08T13:35:05;4.70;;;3.25;;
80985;SDS011;70451;51.226;6.412;2023-08-08T13:37:21;4.90;;;3.30;;
80985;SDS011;70451;51.226;6.412;2023-08-08T13:39:36;5.85;;;3.03;;
80985;SDS011;70451;51.226;6.412;2023-08-08T13:41:51;4.07;;;2.88;;
80985;SDS011;70451;51.226;6.412;2023-08-08T13:44:06;3.63;;;3.05;;
80985;SDS011;70451;51.226;6.412;2023-08-08T13:46:22;3.55;;;2.58;;
80985;SDS011;70451;51.226;6.412;2023-08-08T13:48:37;6.90;;;2.75;;